Smeltertown, Colorado
Current Conditions -  °F | °C
As of 5:15 PM on Friday 21 Nov 2014 (Local Time) from KANK Reporting Station
Clear Clear  
Wind Chill: 36°   Ceiling: Unl
Heat Index: 43°   Visibility: 10mi
Dew Point: 13°   Wind: 13mph
Humidity: 30%   Direction: 220°SW
Pressure: 30.11"   Gusts: 21mph
Location:  38.5561°N, 106.066°W
Report Text: KANK 220015Z AUTO 22011G18KT 10SM CLR 06/M11 A3011 RMK AO1 T00591106
Loading
Personal Weather Stations






























Interactive Weather Map New forecast layout! Learn more

10-Day Weather Forecast

Advertisements
Track Severe Weather on mobile